sensor_id;sensor_type;location;lat;lon;timestamp;pressure;altitude;pressure_sealevel;temperature;humidity
818;BME280;391;51.052;6.954;2022-07-22T00:00:49;101631.69;;;18.03;85.64
818;BME280;391;51.052;6.954;2022-07-22T00:02:53;101637.78;;;17.98;85.49
818;BME280;391;51.052;6.954;2022-07-22T00:04:56;101613.00;;;17.86;85.56
818;BME280;391;51.052;6.954;2022-07-22T00:07:00;101633.25;;;17.88;85.30
818;BME280;391;51.052;6.954;2022-07-22T00:09:04;101618.19;;;17.80;85.21
818;BME280;391;51.052;6.954;2022-07-22T00:11:07;101633.28;;;17.91;85.24
818;BME280;391;51.052;6.954;2022-07-22T00:13:11;101635.16;;;17.98;85.72
818;BME280;391;51.052;6.954;2022-07-22T00:15:15;101635.09;;;17.95;85.45
818;BME280;391;51.052;6.954;2022-07-22T00:17:19;101609.50;;;17.88;85.16
818;BME280;391;51.052;6.954;2022-07-22T00:19:22;101635.09;;;17.97;84.77
818;BME280;391;51.052;6.954;2022-07-22T00:21:26;101637.75;;;17.97;84.84
818;BME280;391;51.052;6.954;2022-07-22T00:23:30;101633.41;;;18.01;84.81
818;BME280;391;51.052;6.954;2022-07-22T00:25:33;101635.22;;;18.06;84.35
818;BME280;391;51.052;6.954;2022-07-22T00:27:37;101630.88;;;18.10;84.22
818;BME280;391;51.052;6.954;2022-07-22T00:29:40;101637.00;;;18.06;84.19
818;BME280;391;51.052;6.954;2022-07-22T00:31:45;101633.47;;;18.05;84.62
818;BME280;391;51.052;6.954;2022-07-22T00:33:49;101629.94;;;18.05;84.06
818;BME280;391;51.052;6.954;2022-07-22T00:35:52;101637.78;;;17.98;84.00
818;BME280;391;51.052;6.954;2022-07-22T00:37:56;101636.91;;;17.98;84.17
818;BME280;391;51.052;6.954;2022-07-22T00:40:00;101630.72;;;17.97;84.34
818;BME280;391;51.052;6.954;2022-07-22T00:42:04;101619.25;;;17.94;84.30
818;BME280;391;51.052;6.954;2022-07-22T00:44:10;101635.97;;;17.94;84.31
818;BME280;391;51.052;6.954;2022-07-22T00:46:13;101629.78;;;17.92;84.23
818;BME280;391;51.052;6.954;2022-07-22T00:48:19;101634.09;;;17.86;84.11
818;BME280;391;51.052;6.954;2022-07-22T00:50:22;101637.66;;;17.89;84.37
818;BME280;391;51.052;6.954;2022-07-22T00:52:26;101627.91;;;17.84;84.58
818;BME280;391;51.052;6.954;2022-07-22T00:54:30;101626.19;;;17.86;84.46
818;BME280;391;51.052;6.954;2022-07-22T00:56:34;101626.09;;;17.81;83.97
818;BME280;391;51.052;6.954;2022-07-22T00:58:38;101631.34;;;17.78;84.27
818;BME280;391;51.052;6.954;2022-07-22T01:00:42;101628.72;;;17.78;83.73
818;BME280;391;51.052;6.954;2022-07-22T01:02:46;101630.41;;;17.75;84.10
818;BME280;391;51.052;6.954;2022-07-22T01:04:51;101631.31;;;17.75;83.92
818;BME280;391;51.052;6.954;2022-07-22T01:06:54;101634.84;;;17.77;83.93
818;BME280;391;51.052;6.954;2022-07-22T01:08:58;101621.72;;;17.80;83.99
818;BME280;391;51.052;6.954;2022-07-22T01:11:09;101626.22;;;17.89;83.85
818;BME280;391;51.052;6.954;2022-07-22T01:13:13;101627.06;;;17.86;83.39
818;BME280;391;51.052;6.954;2022-07-22T01:15:17;101628.88;;;17.89;83.44
818;BME280;391;51.052;6.954;2022-07-22T01:17:20;101627.03;;;17.85;83.25
818;BME280;391;51.052;6.954;2022-07-22T01:19:31;101622.63;;;17.82;82.99
818;BME280;391;51.052;6.954;2022-07-22T01:21:39;101618.09;;;17.74;82.92
818;BME280;391;51.052;6.954;2022-07-22T01:23:43;101625.22;;;17.79;83.05
818;BME280;391;51.052;6.954;2022-07-22T01:25:47;101629.63;;;17.80;83.49
818;BME280;391;51.052;6.954;2022-07-22T01:27:50;101626.09;;;17.80;83.15
818;BME280;391;51.052;6.954;2022-07-22T01:29:54;101618.28;;;17.86;83.51
818;BME280;391;51.052;6.954;2022-07-22T01:31:58;101619.25;;;17.92;82.95
818;BME280;391;51.052;6.954;2022-07-22T01:34:01;101625.41;;;17.93;82.96
818;BME280;391;51.052;6.954;2022-07-22T01:36:09;101627.13;;;17.91;82.86
818;BME280;391;51.052;6.954;2022-07-22T01:38:15;101615.66;;;17.89;82.76
818;BME280;391;51.052;6.954;2022-07-22T01:40:19;101619.16;;;17.86;83.12
818;BME280;391;51.052;6.954;2022-07-22T01:42:23;101620.09;;;17.90;82.96
818;BME280;391;51.052;6.954;2022-07-22T01:44:27;101620.13;;;17.94;82.90
818;BME280;391;51.052;6.954;2022-07-22T01:46:31;101618.47;;;18.01;82.28
818;BME280;391;51.052;6.954;2022-07-22T01:48:36;101616.69;;;18.00;82.37
818;BME280;391;51.052;6.954;2022-07-22T01:50:40;101622.00;;;18.03;82.47
818;BME280;391;51.052;6.954;2022-07-22T01:52:44;101609.69;;;18.02;82.65
818;BME280;391;51.052;6.954;2022-07-22T01:54:49;101611.47;;;18.06;82.50
818;BME280;391;51.052;6.954;2022-07-22T01:56:53;101610.63;;;18.06;82.32
818;BME280;391;51.052;6.954;2022-07-22T01:58:56;101611.47;;;18.06;82.12
818;BME280;391;51.052;6.954;2022-07-22T02:01:03;101610.63;;;18.06;82.07
818;BME280;391;51.052;6.954;2022-07-22T02:03:07;101609.72;;;18.07;82.03
818;BME280;391;51.052;6.954;2022-07-22T02:05:12;101608.81;;;18.05;82.13
818;BME280;391;51.052;6.954;2022-07-22T02:07:16;101606.16;;;18.03;82.12
818;BME280;391;51.052;6.954;2022-07-22T02:09:20;101611.41;;;18.00;82.09
818;BME280;391;51.052;6.954;2022-07-22T02:11:29;101603.34;;;17.88;82.21
818;BME280;391;51.052;6.954;2022-07-22T02:13:34;101613.00;;;17.87;82.86
818;BME280;391;51.052;6.954;2022-07-22T02:15:38;101606.00;;;17.89;82.44
818;BME280;391;51.052;6.954;2022-07-22T02:17:41;101609.63;;;17.96;82.67
818;BME280;391;51.052;6.954;2022-07-22T02:19:44;101610.53;;;18.00;82.36
818;BME280;391;51.052;6.954;2022-07-22T02:21:48;101609.63;;;17.97;82.15
818;BME280;391;51.052;6.954;2022-07-22T02:23:51;101603.47;;;17.98;82.48
818;BME280;391;51.052;6.954;2022-07-22T02:25:55;101604.34;;;17.96;82.21
818;BME280;391;51.052;6.954;2022-07-22T02:28:00;101606.03;;;17.94;82.09
818;BME280;391;51.052;6.954;2022-07-22T02:30:05;101583.81;;;17.74;82.44
818;BME280;391;51.052;6.954;2022-07-22T02:32:09;101602.44;;;17.86;82.29
818;BME280;391;51.052;6.954;2022-07-22T02:34:13;101597.13;;;17.84;82.61
818;BME280;391;51.052;6.954;2022-07-22T02:36:16;101606.03;;;17.92;82.38
818;BME280;391;51.052;6.954;2022-07-22T02:38:21;101605.94;;;17.85;82.48
818;BME280;391;51.052;6.954;2022-07-22T02:40:25;101604.09;;;17.79;82.77
818;BME280;391;51.052;6.954;2022-07-22T02:42:28;101603.25;;;17.80;82.79
818;BME280;391;51.052;6.954;2022-07-22T02:44:33;101601.50;;;17.84;83.08
818;BME280;391;51.052;6.954;2022-07-22T02:46:37;101601.53;;;17.85;82.70
818;BME280;391;51.052;6.954;2022-07-22T02:48:48;101600.72;;;17.89;82.63
818;BME280;391;51.052;6.954;2022-07-22T02:50:54;101611.34;;;17.97;82.98
818;BME280;391;51.052;6.954;2022-07-22T02:53:00;101605.19;;;17.95;82.68
818;BME280;391;51.052;6.954;2022-07-22T02:55:09;101613.19;;;18.00;82.95
818;BME280;391;51.052;6.954;2022-07-22T02:57:12;101612.31;;;18.04;82.48
818;BME280;391;51.052;6.954;2022-07-22T02:59:16;101613.06;;;17.93;82.76
818;BME280;391;51.052;6.954;2022-07-22T03:01:20;101614.91;;;17.97;83.37
818;BME280;391;51.052;6.954;2022-07-22T03:03:29;101603.47;;;17.98;83.16
818;BME280;391;51.052;6.954;2022-07-22T03:05:33;101613.09;;;17.95;83.02
818;BME280;391;51.052;6.954;2022-07-22T03:08:00;101607.81;;;17.95;83.45
818;BME280;391;51.052;6.954;2022-07-22T03:10:04;101609.63;;;17.96;83.12
818;BME280;391;51.052;6.954;2022-07-22T03:12:08;101616.56;;;17.89;82.95
818;BME280;391;51.052;6.954;2022-07-22T03:14:12;101613.97;;;17.94;83.39
818;BME280;391;51.052;6.954;2022-07-22T03:16:16;101612.19;;;17.91;82.92
818;BME280;391;51.052;6.954;2022-07-22T03:18:22;101611.31;;;17.94;83.32
818;BME280;391;51.052;6.954;2022-07-22T03:20:25;101612.09;;;17.85;83.20
818;BME280;391;51.052;6.954;2022-07-22T03:22:28;101620.84;;;17.81;83.68
818;BME280;391;51.052;6.954;2022-07-22T03:24:32;101619.91;;;17.76;83.69
818;BME280;391;51.052;6.954;2022-07-22T03:26:35;101612.84;;;17.75;84.06
818;BME280;391;51.052;6.954;2022-07-22T03:28:41;101613.69;;;17.74;84.27
818;BME280;391;51.052;6.954;2022-07-22T03:30:45;101611.06;;;17.73;84.61
818;BME280;391;51.052;6.954;2022-07-22T03:32:50;101611.06;;;17.73;84.22
818;BME280;391;51.052;6.954;2022-07-22T03:34:57;101612.72;;;17.68;84.62
818;BME280;391;51.052;6.954;2022-07-22T03:37:07;101604.81;;;17.68;84.80
818;BME280;391;51.052;6.954;2022-07-22T03:39:11;101605.69;;;17.68;84.84
818;BME280;391;51.052;6.954;2022-07-22T03:41:15;101586.19;;;17.56;84.92
818;BME280;391;51.052;6.954;2022-07-22T03:43:18;101607.53;;;17.72;85.08
818;BME280;391;51.052;6.954;2022-07-22T03:45:22;101573.81;;;17.53;85.11
818;BME280;391;51.052;6.954;2022-07-22T03:47:26;101600.47;;;17.71;85.20
818;BME280;391;51.052;6.954;2022-07-22T03:49:30;101597.00;;;17.74;85.25
818;BME280;391;51.052;6.954;2022-07-22T03:51:36;101600.63;;;17.80;85.44
818;BME280;391;51.052;6.954;2022-07-22T03:53:40;101598.88;;;17.84;85.16
818;BME280;391;51.052;6.954;2022-07-22T03:55:44;101601.59;;;17.88;84.88
818;BME280;391;51.052;6.954;2022-07-22T03:57:48;101595.38;;;17.83;84.61
818;BME280;391;51.052;6.954;2022-07-22T03:59:57;101602.41;;;17.83;84.68
818;BME280;391;51.052;6.954;2022-07-22T04:02:01;101596.19;;;17.81;85.04
818;BME280;391;51.052;6.954;2022-07-22T04:04:05;101604.19;;;17.87;84.82
818;BME280;391;51.052;6.954;2022-07-22T04:06:15;101605.94;;;17.83;84.93
818;BME280;391;51.052;6.954;2022-07-22T04:08:25;101601.56;;;17.87;84.50
818;BME280;391;51.052;6.954;2022-07-22T04:10:28;101597.16;;;17.87;84.90
818;BME280;391;51.052;6.954;2022-07-22T04:12:34;101598.16;;;17.95;84.67
818;BME280;391;51.052;6.954;2022-07-22T04:14:47;101592.91;;;17.98;84.74
818;BME280;391;51.052;6.954;2022-07-22T04:16:55;101601.75;;;18.04;84.62
818;BME280;391;51.052;6.954;2022-07-22T04:19:04;101602.63;;;18.01;84.21
818;BME280;391;51.052;6.954;2022-07-22T04:21:24;101600.72;;;17.91;84.94
818;BME280;391;51.052;6.954;2022-07-22T04:23:31;101595.38;;;17.85;84.99
818;BME280;391;51.052;6.954;2022-07-22T04:25:44;101592.72;;;17.83;85.50
818;BME280;391;51.052;6.954;2022-07-22T04:27:47;101604.19;;;17.85;85.04
818;BME280;391;51.052;6.954;2022-07-22T04:29:51;101596.19;;;17.79;85.41
818;BME280;391;51.052;6.954;2022-07-22T04:31:55;101592.69;;;17.82;85.31
818;BME280;391;51.052;6.954;2022-07-22T04:34:04;101583.91;;;17.81;85.97
818;BME280;391;51.052;6.954;2022-07-22T04:36:07;101590.91;;;17.79;85.27
818;BME280;391;51.052;6.954;2022-07-22T04:38:11;101590.94;;;17.82;85.44
818;BME280;391;51.052;6.954;2022-07-22T04:40:25;101589.13;;;17.77;84.95
818;BME280;391;51.052;6.954;2022-07-22T04:42:28;101591.72;;;17.75;85.20
818;BME280;391;51.052;6.954;2022-07-22T04:44:32;101593.53;;;17.78;85.30
818;BME280;391;51.052;6.954;2022-07-22T04:46:36;101583.00;;;17.79;85.22
818;BME280;391;51.052;6.954;2022-07-22T04:48:40;101583.78;;;17.72;84.92
818;BME280;391;51.052;6.954;2022-07-22T04:50:44;101589.13;;;17.77;85.12
818;BME280;391;51.052;6.954;2022-07-22T04:52:48;101598.72;;;17.70;84.78
818;BME280;391;51.052;6.954;2022-07-22T04:54:52;101595.19;;;17.70;85.11
818;BME280;391;51.052;6.954;2022-07-22T04:56:58;101596.97;;;17.71;85.32
818;BME280;391;51.052;6.954;2022-07-22T04:59:02;101600.44;;;17.68;85.38
818;BME280;391;51.052;6.954;2022-07-22T05:01:07;101590.75;;;17.69;85.55
818;BME280;391;51.052;6.954;2022-07-22T05:03:10;101605.81;;;17.77;85.51
818;BME280;391;51.052;6.954;2022-07-22T05:05:15;101603.19;;;17.77;85.17
818;BME280;391;51.052;6.954;2022-07-22T05:07:19;101605.00;;;17.81;85.56
818;BME280;391;51.052;6.954;2022-07-22T05:09:23;101604.09;;;17.79;85.17
818;BME280;391;51.052;6.954;2022-07-22T05:11:26;101604.03;;;17.75;85.35
818;BME280;391;51.052;6.954;2022-07-22T05:13:31;101610.25;;;17.77;85.37
818;BME280;391;51.052;6.954;2022-07-22T05:15:35;101559.81;;;17.56;85.46
818;BME280;391;51.052;6.954;2022-07-22T05:17:38;101611.22;;;17.83;84.96
818;BME280;391;51.052;6.954;2022-07-22T05:19:49;101616.53;;;17.86;84.66
818;BME280;391;51.052;6.954;2022-07-22T05:21:53;101606.91;;;17.91;84.75
818;BME280;391;51.052;6.954;2022-07-22T05:23:56;101609.53;;;17.91;84.88
818;BME280;391;51.052;6.954;2022-07-22T05:26:00;101608.66;;;17.89;84.15
818;BME280;391;51.052;6.954;2022-07-22T05:28:04;101609.53;;;17.91;84.44
818;BME280;391;51.052;6.954;2022-07-22T05:30:13;101614.00;;;17.95;83.85
818;BME280;391;51.052;6.954;2022-07-22T05:32:23;101595.41;;;17.86;84.08
818;BME280;391;51.052;6.954;2022-07-22T05:34:31;101607.00;;;18.01;83.88
818;BME280;391;51.052;6.954;2022-07-22T05:36:35;101599.06;;;17.96;83.33
818;BME280;391;51.052;6.954;2022-07-22T05:38:40;101605.09;;;17.87;83.76
818;BME280;391;51.052;6.954;2022-07-22T05:40:45;101573.25;;;17.75;84.29
818;BME280;391;51.052;6.954;2022-07-22T05:42:49;101606.16;;;18.03;83.37
818;BME280;391;51.052;6.954;2022-07-22T05:44:52;101608.91;;;18.11;82.50
818;BME280;391;51.052;6.954;2022-07-22T05:46:57;101602.75;;;18.13;82.71
818;BME280;391;51.052;6.954;2022-07-22T05:49:01;101602.88;;;18.22;81.65
818;BME280;391;51.052;6.954;2022-07-22T05:51:12;101597.59;;;18.21;81.25
818;BME280;391;51.052;6.954;2022-07-22T05:53:16;101603.00;;;18.33;80.61
818;BME280;391;51.052;6.954;2022-07-22T05:55:19;101597.69;;;18.30;79.99
818;BME280;391;51.052;6.954;2022-07-22T05:57:25;101599.44;;;18.28;79.95
818;BME280;391;51.052;6.954;2022-07-22T05:59:29;101592.38;;;18.28;79.38
818;BME280;391;51.052;6.954;2022-07-22T06:01:32;101593.53;;;18.50;80.29
818;BME280;391;51.052;6.954;2022-07-22T06:03:45;101593.56;;;18.55;78.63
818;BME280;391;51.052;6.954;2022-07-22T06:05:49;101597.09;;;18.54;78.39
818;BME280;391;51.052;6.954;2022-07-22T06:07:54;101598.03;;;18.59;77.65
818;BME280;391;51.052;6.954;2022-07-22T06:10:09;101596.31;;;18.67;78.25
818;BME280;391;51.052;6.954;2022-07-22T06:12:13;101598.97;;;18.65;76.71
818;BME280;391;51.052;6.954;2022-07-22T06:14:16;101590.13;;;18.60;77.01
818;BME280;391;51.052;6.954;2022-07-22T06:16:25;101596.25;;;18.56;76.62
818;BME280;391;51.052;6.954;2022-07-22T06:18:33;101599.78;;;18.57;76.85
818;BME280;391;51.052;6.954;2022-07-22T06:20:38;101601.53;;;18.56;76.76
818;BME280;391;51.052;6.954;2022-07-22T06:22:41;101605.03;;;18.54;76.71
818;BME280;391;51.052;6.954;2022-07-22T06:24:45;101594.34;;;18.46;76.66
818;BME280;391;51.052;6.954;2022-07-22T06:26:50;101606.75;;;18.50;77.17
818;BME280;391;51.052;6.954;2022-07-22T06:28:53;101608.53;;;18.54;76.85
818;BME280;391;51.052;6.954;2022-07-22T06:30:57;101604.31;;;18.71;78.32
818;BME280;391;51.052;6.954;2022-07-22T06:33:02;101594.75;;;18.82;76.55
818;BME280;391;51.052;6.954;2022-07-22T06:35:07;101595.81;;;19.07;76.11
818;BME280;391;51.052;6.954;2022-07-22T06:37:13;101596.00;;;19.34;75.81
818;BME280;391;51.052;6.954;2022-07-22T06:39:16;101603.25;;;19.52;75.17
818;BME280;391;51.052;6.954;2022-07-22T06:41:42;101606.81;;;19.59;73.78
818;BME280;391;51.052;6.954;2022-07-22T06:44:15;101599.75;;;19.64;73.47
818;BME280;391;51.052;6.954;2022-07-22T06:46:54;101606.00;;;19.69;73.09
818;BME280;391;51.052;6.954;2022-07-22T06:48:58;101607.78;;;19.82;73.10
818;BME280;391;51.052;6.954;2022-07-22T06:51:05;101598.19;;;19.99;71.84
818;BME280;391;51.052;6.954;2022-07-22T06:53:10;101592.03;;;20.03;71.53
818;BME280;391;51.052;6.954;2022-07-22T06:55:15;101605.25;;;20.01;71.31
818;BME280;391;51.052;6.954;2022-07-22T06:57:28;101605.22;;;19.95;71.11
818;BME280;391;51.052;6.954;2022-07-22T06:59:33;101601.69;;;19.90;72.04
818;BME280;391;51.052;6.954;2022-07-22T07:01:42;101593.84;;;20.13;71.78
818;BME280;391;51.052;6.954;2022-07-22T07:03:47;101595.69;;;20.34;71.78
818;BME280;391;51.052;6.954;2022-07-22T07:05:51;101592.97;;;20.25;70.36
818;BME280;391;51.052;6.954;2022-07-22T07:07:55;101572.66;;;20.13;69.09
818;BME280;391;51.052;6.954;2022-07-22T07:10:01;101588.50;;;20.12;70.17
818;BME280;391;51.052;6.954;2022-07-22T07:12:15;101590.28;;;20.03;70.76
818;BME280;391;51.052;6.954;2022-07-22T07:14:48;101585.84;;;20.07;70.16
818;BME280;391;51.052;6.954;2022-07-22T07:17:11;101592.09;;;20.24;69.73
818;BME280;391;51.052;6.954;2022-07-22T07:19:15;101602.63;;;20.09;69.81
818;BME280;391;51.052;6.954;2022-07-22T07:21:19;101607.81;;;19.88;69.71
818;BME280;391;51.052;6.954;2022-07-22T07:23:23;101601.66;;;19.89;71.53
818;BME280;391;51.052;6.954;2022-07-22T07:25:28;101580.38;;;19.69;70.73
818;BME280;391;51.052;6.954;2022-07-22T07:27:32;101595.41;;;19.73;70.21
818;BME280;391;51.052;6.954;2022-07-22T07:29:39;101598.97;;;19.78;71.48
818;BME280;391;51.052;6.954;2022-07-22T07:31:43;101596.41;;;19.93;71.19
818;BME280;391;51.052;6.954;2022-07-22T07:33:50;101586.75;;;20.15;70.78
818;BME280;391;51.052;6.954;2022-07-22T07:35:53;101584.19;;;20.33;69.72
818;BME280;391;51.052;6.954;2022-07-22T07:38:06;101588.63;;;20.43;68.69
818;BME280;391;51.052;6.954;2022-07-22T07:40:11;101590.28;;;20.17;69.39
818;BME280;391;51.052;6.954;2022-07-22T07:42:16;101590.28;;;20.06;69.06
818;BME280;391;51.052;6.954;2022-07-22T07:44:20;101584.88;;;19.81;69.63
818;BME280;391;51.052;6.954;2022-07-22T07:46:24;101587.44;;;19.64;70.00
818;BME280;391;51.052;6.954;2022-07-22T07:48:27;101581.22;;;19.58;70.74
818;BME280;391;51.052;6.954;2022-07-22T07:50:31;101571.53;;;19.64;71.06
818;BME280;391;51.052;6.954;2022-07-22T07:52:37;101580.31;;;19.54;71.26
818;BME280;391;51.052;6.954;2022-07-22T07:54:42;101582.91;;;19.46;70.94
818;BME280;391;51.052;6.954;2022-07-22T07:57:06;101582.94;;;19.54;72.63
818;BME280;391;51.052;6.954;2022-07-22T07:59:11;101580.34;;;19.56;71.25
818;BME280;391;51.052;6.954;2022-07-22T08:01:29;101574.13;;;19.57;70.60
818;BME280;391;51.052;6.954;2022-07-22T08:03:53;101577.72;;;19.69;71.25
818;BME280;391;51.052;6.954;2022-07-22T08:06:16;101586.69;;;19.91;69.85
818;BME280;391;51.052;6.954;2022-07-22T08:08:21;101578.59;;;19.61;71.15
818;BME280;391;51.052;6.954;2022-07-22T08:10:25;101579.47;;;19.63;71.61
818;BME280;391;51.052;6.954;2022-07-22T08:13:08;101575.75;;;19.33;72.01
818;BME280;391;51.052;6.954;2022-07-22T08:15:32;101579.41;;;19.53;72.90
818;BME280;391;51.052;6.954;2022-07-22T08:17:41;101575.94;;;19.64;72.94
818;BME280;391;51.052;6.954;2022-07-22T08:19:44;101586.59;;;19.71;71.50
818;BME280;391;51.052;6.954;2022-07-22T08:21:49;101585.75;;;19.81;72.68
818;BME280;391;51.052;6.954;2022-07-22T08:24:00;101579.59;;;19.84;71.28
818;BME280;391;51.052;6.954;2022-07-22T08:26:06;101583.88;;;19.64;72.66
818;BME280;391;51.052;6.954;2022-07-22T08:28:10;101579.47;;;19.64;71.55
818;BME280;391;51.052;6.954;2022-07-22T08:30:15;101578.50;;;19.47;73.31
818;BME280;391;51.052;6.954;2022-07-22T08:32:20;101584.81;;;19.69;72.73
818;BME280;391;51.052;6.954;2022-07-22T08:34:24;101585.78;;;19.87;71.58
818;BME280;391;51.052;6.954;2022-07-22T08:36:27;101580.50;;;19.93;72.41
818;BME280;391;51.052;6.954;2022-07-22T08:38:31;101580.56;;;20.08;71.29
818;BME280;391;51.052;6.954;2022-07-22T08:40:35;101585.88;;;20.13;71.29
818;BME280;391;51.052;6.954;2022-07-22T08:42:41;101592.09;;;20.23;69.85
818;BME280;391;51.052;6.954;2022-07-22T08:44:45;101594.66;;;19.97;70.00
818;BME280;391;51.052;6.954;2022-07-22T08:46:50;101588.47;;;20.01;71.18
818;BME280;391;51.052;6.954;2022-07-22T08:48:56;101583.28;;;20.25;70.44
818;BME280;391;51.052;6.954;2022-07-22T08:51:20;101588.63;;;20.34;69.96
818;BME280;391;51.052;6.954;2022-07-22T08:53:38;101584.25;;;20.50;69.55
818;BME280;391;51.052;6.954;2022-07-22T08:55:47;101586.03;;;20.54;69.34
818;BME280;391;51.052;6.954;2022-07-22T08:57:51;101584.22;;;20.39;69.58
818;BME280;391;51.052;6.954;2022-07-22T08:59:56;101588.66;;;20.45;69.11
818;BME280;391;51.052;6.954;2022-07-22T09:02:02;101592.19;;;20.50;68.16
818;BME280;391;51.052;6.954;2022-07-22T09:04:09;101571.84;;;20.46;68.67
818;BME280;391;51.052;6.954;2022-07-22T09:06:13;101564.81;;;20.52;68.02
818;BME280;391;51.052;6.954;2022-07-22T09:08:17;101575.44;;;20.69;68.13
818;BME280;391;51.052;6.954;2022-07-22T09:10:40;101575.41;;;20.65;67.71
818;BME280;391;51.052;6.954;2022-07-22T09:13:04;101565.69;;;20.71;68.17
818;BME280;391;51.052;6.954;2022-07-22T09:15:33;101568.34;;;20.65;66.33
818;BME280;391;51.052;6.954;2022-07-22T09:17:59;101578.97;;;20.71;67.18
818;BME280;391;51.052;6.954;2022-07-22T09:20:18;101581.63;;;20.61;67.12
818;BME280;391;51.052;6.954;2022-07-22T09:22:48;101582.44;;;20.34;66.96
818;BME280;391;51.052;6.954;2022-07-22T09:24:58;101584.22;;;20.32;66.94
818;BME280;391;51.052;6.954;2022-07-22T09:27:22;101587.75;;;20.32;68.59
818;BME280;391;51.052;6.954;2022-07-22T09:29:58;101580.56;;;20.12;67.21
818;BME280;391;51.052;6.954;2022-07-22T09:32:09;101590.16;;;19.81;68.58
818;BME280;391;51.052;6.954;2022-07-22T09:34:33;101582.25;;;19.87;69.42
818;BME280;391;51.052;6.954;2022-07-22T09:36:56;101564.66;;;20.08;69.64
818;BME280;391;51.052;6.954;2022-07-22T09:39:25;101587.75;;;20.41;68.18
818;BME280;391;51.052;6.954;2022-07-22T09:41:30;101588.66;;;20.51;67.03
818;BME280;391;51.052;6.954;2022-07-22T09:43:35;101583.38;;;20.51;67.60
818;BME280;391;51.052;6.954;2022-07-22T09:45:45;101586.91;;;20.59;66.59
818;BME280;391;51.052;6.954;2022-07-22T09:47:50;101540.09;;;20.50;66.93
818;BME280;391;51.052;6.954;2022-07-22T09:50:18;101582.50;;;20.82;66.51
818;BME280;391;51.052;6.954;2022-07-22T09:52:44;101586.91;;;20.91;66.02
818;BME280;391;51.052;6.954;2022-07-22T09:54:55;101585.16;;;21.03;65.43
818;BME280;391;51.052;6.954;2022-07-22T09:57:00;101585.19;;;21.09;65.33
818;BME280;391;51.052;6.954;2022-07-22T09:59:04;101582.50;;;21.00;66.44
818;BME280;391;51.052;6.954;2022-07-22T10:01:14;101574.56;;;20.79;66.00
818;BME280;391;51.052;6.954;2022-07-22T10:03:23;101572.78;;;20.98;66.51
818;BME280;391;51.052;6.954;2022-07-22T10:05:30;101564.84;;;21.28;66.82
818;BME280;391;51.052;6.954;2022-07-22T10:07:34;101566.59;;;21.37;63.84
818;BME280;391;51.052;6.954;2022-07-22T10:09:44;101564.78;;;21.52;64.95
818;BME280;391;51.052;6.954;2022-07-22T10:11:50;101561.22;;;21.61;64.13
818;BME280;391;51.052;6.954;2022-07-22T10:13:57;101551.47;;;21.66;63.94
818;BME280;391;51.052;6.954;2022-07-22T10:16:01;101548.78;;;21.75;63.04
818;BME280;391;51.052;6.954;2022-07-22T10:18:07;101556.75;;;21.68;62.54
818;BME280;391;51.052;6.954;2022-07-22T10:20:16;101550.56;;;21.72;63.72
818;BME280;391;51.052;6.954;2022-07-22T10:22:46;101542.56;;;21.82;64.04
818;BME280;391;51.052;6.954;2022-07-22T10:25:01;101536.34;;;21.85;61.64
818;BME280;391;51.052;6.954;2022-07-22T10:27:05;101538.16;;;21.71;62.78
818;BME280;391;51.052;6.954;2022-07-22T10:29:24;101517.00;;;21.60;62.21
818;BME280;391;51.052;6.954;2022-07-22T10:31:27;101534.59;;;21.78;62.09
818;BME280;391;51.052;6.954;2022-07-22T10:33:31;101532.78;;;21.83;61.34
818;BME280;391;51.052;6.954;2022-07-22T10:35:52;101523.09;;;21.74;61.24
818;BME280;391;51.052;6.954;2022-07-22T10:38:00;101527.56;;;21.64;61.88
818;BME280;391;51.052;6.954;2022-07-22T10:40:12;101530.25;;;21.54;62.25
818;BME280;391;51.052;6.954;2022-07-22T10:42:16;101531.16;;;21.51;62.77
818;BME280;391;51.052;6.954;2022-07-22T10:44:47;101527.59;;;21.57;62.06
818;BME280;391;51.052;6.954;2022-07-22T10:46:59;101530.31;;;21.43;62.15
818;BME280;391;51.052;6.954;2022-07-22T10:49:07;101532.16;;;21.19;62.82
818;BME280;391;51.052;6.954;2022-07-22T10:51:13;101535.59;;;21.48;63.58
818;BME280;391;51.052;6.954;2022-07-22T10:53:20;101536.53;;;21.41;61.38
818;BME280;391;51.052;6.954;2022-07-22T10:55:25;101532.97;;;21.43;62.81
818;BME280;391;51.052;6.954;2022-07-22T10:57:29;101540.97;;;21.18;63.04
818;BME280;391;51.052;6.954;2022-07-22T10:59:39;101533.03;;;21.10;64.13
818;BME280;391;51.052;6.954;2022-07-22T11:01:51;101533.03;;;21.12;64.46
818;BME280;391;51.052;6.954;2022-07-22T11:04:07;101545.41;;;21.25;64.15
818;BME280;391;51.052;6.954;2022-07-22T11:06:24;101533.00;;;21.08;63.02
818;BME280;391;51.052;6.954;2022-07-22T11:08:28;101535.66;;;21.08;62.86
818;BME280;391;51.052;6.954;2022-07-22T11:10:34;101518.88;;;20.91;63.98
818;BME280;391;51.052;6.954;2022-07-22T11:12:38;101538.34;;;21.12;63.53
818;BME280;391;51.052;6.954;2022-07-22T11:14:44;101532.09;;;21.06;62.70
818;BME280;391;51.052;6.954;2022-07-22T11:16:49;101538.31;;;21.13;62.72
818;BME280;391;51.052;6.954;2022-07-22T11:18:54;101518.84;;;21.26;62.91
818;BME280;391;51.052;6.954;2022-07-22T11:20:58;101525.91;;;21.36;63.20
818;BME280;391;51.052;6.954;2022-07-22T11:23:03;101517.00;;;21.51;62.97
818;BME280;391;51.052;6.954;2022-07-22T11:25:09;101512.56;;;21.56;61.29
818;BME280;391;51.052;6.954;2022-07-22T11:27:15;101514.31;;;21.63;62.12
818;BME280;391;51.052;6.954;2022-07-22T11:29:24;101514.31;;;21.66;62.12
818;BME280;391;51.052;6.954;2022-07-22T11:31:28;101477.16;;;21.63;61.69
818;BME280;391;51.052;6.954;2022-07-22T11:33:32;101480.59;;;21.77;61.45
818;BME280;391;51.052;6.954;2022-07-22T11:35:36;101499.09;;;22.04;60.80
818;BME280;391;51.052;6.954;2022-07-22T11:37:40;101502.59;;;22.09;60.82
818;BME280;391;51.052;6.954;2022-07-22T11:39:45;101479.69;;;21.95;61.22
818;BME280;391;51.052;6.954;2022-07-22T11:41:49;101511.28;;;22.36;58.91